createdAt,value
2018-01-31T01:52:52.879Z,67.40
2018-01-31T01:55:19.233Z,67.70
2018-01-31T01:57:45.588Z,67.60
2018-01-31T02:00:12.672Z,67.60
2018-01-31T02:02:39.043Z,67.60
2018-01-31T02:05:05.369Z,67.40
2018-01-31T02:07:31.716Z,67.70
2018-01-31T02:09:58.085Z,67.30
2018-01-31T02:12:24.410Z,67.50
2018-01-31T02:14:50.752Z,67.50
2018-01-31T02:17:17.107Z,67.50
2018-01-31T02:19:44.205Z,67.50
2018-01-31T02:22:10.540Z,67.60
2018-01-31T02:24:36.892Z,67.40
2018-01-31T02:27:03.265Z,67.40
2018-01-31T02:29:29.594Z,67.40
2018-01-31T02:31:55.952Z,67.50
2018-01-31T02:34:23.035Z,67.60
2018-01-31T02:36:49.382Z,67.60
2018-01-31T02:39:34.207Z,67.40
2018-01-31T02:42:01.277Z,67.40
2018-01-31T02:44:27.608Z,67.40
2018-01-31T02:46:53.960Z,67.50
2018-01-31T02:49:20.299Z,67.30
2018-01-31T02:51:46.631Z,67.50
2018-01-31T02:54:12.985Z,67.20
2018-01-31T02:56:39.314Z,67.20
2018-01-31T02:59:05.639Z,67.00
2018-01-31T03:01:31.974Z,67.00
2018-01-31T03:03:58.327Z,66.90
2018-01-31T03:06:24.657Z,66.90
2018-01-31T03:08:51.035Z,66.70
2018-01-31T03:11:17.362Z,66.80
2018-01-31T03:13:43.700Z,66.80
2018-01-31T03:16:10.099Z,67.00
2018-01-31T03:18:36.426Z,66.90
2018-01-31T03:21:02.760Z,66.80
2018-01-31T03:23:29.132Z,66.80
2018-01-31T03:25:55.467Z,66.70
2018-01-31T03:28:21.795Z,66.60
2018-01-31T03:30:48.148Z,66.90
2018-01-31T03:33:14.475Z,66.50
2018-01-31T03:35:40.804Z,66.80
2018-01-31T03:38:07.204Z,66.90
2018-01-31T03:40:33.539Z,66.70
2018-01-31T03:43:00.212Z,66.80
2018-01-31T03:45:26.578Z,66.70
2018-01-31T03:47:52.923Z,66.50
2018-01-31T03:50:19.251Z,66.80
2018-01-31T03:52:45.604Z,66.80
2018-01-31T03:55:11.924Z,67.00
2018-01-31T03:57:38.277Z,66.70
2018-01-31T04:00:04.667Z,66.90
2018-01-31T04:02:31.004Z,66.70
2018-01-31T04:04:57.340Z,66.80
2018-01-31T04:07:23.683Z,66.60
2018-01-31T04:09:50.018Z,66.80
2018-01-31T04:12:16.360Z,66.60
2018-01-31T04:14:42.729Z,67.00
2018-01-31T04:17:09.091Z,66.90
2018-01-31T04:19:36.161Z,66.60
2018-01-31T04:22:02.544Z,66.80
2018-01-31T04:24:28.890Z,66.90
2018-01-31T04:26:55.215Z,66.80
2018-01-31T04:29:21.556Z,66.70
2018-01-31T04:31:49.367Z,66.80
2018-01-31T04:34:15.695Z,66.80
2018-01-31T04:36:42.790Z,66.80
2018-01-31T04:39:09.112Z,66.80
2018-01-31T04:41:35.448Z,66.70
2018-01-31T04:44:01.805Z,66.70
2018-01-31T04:46:28.136Z,66.60
2018-01-31T04:48:54.472Z,66.70
2018-01-31T04:51:20.844Z,66.50
2018-01-31T04:53:47.171Z,66.70
2018-01-31T04:56:13.517Z,66.70
2018-01-31T04:58:39.863Z,66.30
2018-01-31T05:01:06.932Z,62.30
2018-01-31T05:03:34.008Z,60.50
2018-01-31T05:06:00.352Z,60.10
2018-01-31T05:08:26.683Z,58.80
2018-01-31T05:10:53.041Z,57.30
2018-01-31T05:13:19.384Z,55.50
2018-01-31T05:15:45.719Z,54.30
2018-01-31T05:18:12.072Z,53.10
2018-01-31T05:20:38.526Z,52.60
2018-01-31T05:23:05.612Z,50.60
2018-01-31T05:25:31.931Z,50.70
2018-01-31T05:27:59.027Z,49.40
2018-01-31T05:30:25.352Z,49.50
2018-01-31T05:32:51.696Z,49.40
2018-01-31T05:35:18.048Z,48.60
2018-01-31T05:37:44.389Z,48.30
2018-01-31T05:40:11.650Z,47.80
2018-01-31T05:42:37.986Z,47.50
2018-01-31T05:45:04.329Z,46.80
2018-01-31T05:47:30.669Z,46.50
2018-01-31T05:49:57.072Z,46.10
2018-01-31T05:52:23.396Z,45.70
2018-01-31T05:54:49.745Z,46.60
2018-01-31T05:57:16.143Z,46.70
2018-01-31T05:59:42.460Z,47.60
2018-01-31T06:02:08.805Z,47.40
2018-01-31T06:04:35.929Z,48.60
2018-01-31T06:07:02.276Z,48.50
2018-01-31T06:09:28.611Z,48.60
2018-01-31T06:11:54.951Z,49.00
2018-01-31T06:14:21.301Z,49.30
2018-01-31T06:16:48.399Z,50.20
2018-01-31T06:19:14.780Z,50.00
2018-01-31T06:21:41.123Z,50.70
2018-01-31T06:24:07.542Z,51.00
2018-01-31T06:26:33.886Z,51.60
2018-01-31T06:29:01.000Z,52.50
2018-01-31T06:31:27.343Z,51.80
2018-01-31T06:33:53.716Z,52.10
2018-01-31T06:36:20.800Z,51.50
2018-01-31T06:38:47.878Z,50.70
2018-01-31T06:41:14.271Z,50.70
2018-01-31T06:43:41.348Z,50.20
2018-01-31T06:46:08.464Z,49.30
2018-01-31T06:48:34.811Z,49.60
2018-01-31T06:51:01.140Z,49.70
2018-01-31T06:53:27.472Z,49.90
2018-01-31T06:55:53.835Z,49.90
2018-01-31T06:58:20.908Z,50.30
2018-01-31T07:00:47.256Z,50.30
2018-01-31T07:03:13.648Z,50.70
2018-01-31T07:05:40.004Z,50.60
2018-01-31T07:08:07.102Z,50.90
2018-01-31T07:10:33.505Z,50.80
2018-01-31T07:13:00.572Z,51.50
2018-01-31T07:15:26.929Z,51.40
2018-01-31T07:17:53.383Z,51.40
2018-01-31T07:20:19.770Z,50.90
2018-01-31T07:22:46.840Z,49.70
2018-01-31T07:25:13.255Z,49.60
2018-01-31T07:27:40.343Z,47.30
2018-01-31T07:30:06.778Z,47.30
2018-01-31T07:32:33.116Z,46.90
2018-01-31T07:34:59.446Z,46.90
2018-01-31T07:37:25.826Z,46.70
2018-01-31T07:39:52.178Z,46.20
2018-01-31T07:42:18.516Z,46.70
2018-01-31T07:44:44.892Z,46.80
2018-01-31T07:47:11.227Z,46.70
2018-01-31T07:49:37.568Z,46.60
2018-01-31T07:52:03.976Z,46.10
2018-01-31T07:54:31.069Z,46.30
2018-01-31T07:56:57.420Z,47.00
2018-01-31T07:59:23.798Z,46.60
2018-01-31T08:01:50.953Z,47.70
2018-01-31T08:04:18.048Z,47.00
2018-01-31T08:06:44.440Z,47.00
2018-01-31T08:09:10.792Z,46.90
2018-01-31T08:11:37.904Z,47.30
2018-01-31T08:14:13.256Z,47.50
2018-01-31T08:16:39.636Z,47.50
2018-01-31T08:19:06.018Z,48.10
2018-01-31T08:21:32.368Z,48.40
2018-01-31T08:23:58.829Z,49.40
2018-01-31T08:26:25.924Z,49.10
2018-01-31T08:28:52.306Z,49.30
2018-01-31T08:31:18.652Z,48.10
2018-01-31T08:33:45.064Z,48.00
2018-01-31T08:36:11.422Z,43.70
2018-01-31T08:38:38.519Z,43.20
2018-01-31T08:41:04.919Z,43.80
2018-01-31T08:43:31.320Z,43.50
2018-01-31T08:45:57.669Z,43.50
2018-01-31T08:48:24.123Z,43.30
2018-01-31T08:50:50.488Z,42.90
2018-01-31T08:53:17.659Z,42.50
2018-01-31T08:55:44.075Z,42.50
2018-01-31T08:58:11.180Z,41.50
2018-01-31T09:00:37.564Z,41.40
2018-01-31T09:03:04.723Z,41.30
2018-01-31T09:05:31.889Z,40.80
2018-01-31T09:07:58.265Z,40.70
2018-01-31T09:10:24.600Z,40.80
2018-01-31T09:12:50.996Z,40.80
2018-01-31T09:15:18.147Z,40.70
2018-01-31T09:17:45.279Z,40.80
2018-01-31T09:20:11.700Z,40.90
2018-01-31T09:22:38.131Z,40.90
2018-01-31T09:25:04.575Z,41.60
2018-01-31T09:27:30.955Z,41.50
2018-01-31T09:29:58.060Z,41.70
2018-01-31T09:32:24.463Z,41.70
2018-01-31T09:34:50.855Z,42.10
2018-01-31T09:37:17.254Z,42.60
2018-01-31T09:39:43.625Z,43.20
2018-01-31T09:42:09.985Z,43.30
2018-01-31T09:44:37.127Z,43.60
2018-01-31T09:47:03.532Z,43.90
2018-01-31T09:49:29.915Z,43.50
2018-01-31T09:52:03.172Z,42.80
2018-01-31T09:54:29.542Z,42.60
2018-01-31T09:56:55.887Z,42.10
2018-01-31T09:59:22.981Z,42.10
2018-01-31T10:01:49.303Z,42.20
2018-01-31T10:04:15.673Z,42.40
2018-01-31T10:06:42.055Z,42.00
2018-01-31T10:09:09.197Z,41.80
2018-01-31T10:11:35.524Z,41.80
2018-01-31T10:14:01.865Z,41.90
2018-01-31T10:16:28.229Z,42.30
2018-01-31T10:18:54.573Z,43.20
2018-01-31T10:21:27.900Z,44.00
2018-01-31T10:23:54.225Z,43.80
2018-01-31T10:26:20.568Z,44.60
2018-01-31T10:28:46.929Z,45.10
2018-01-31T10:31:13.312Z,45.70
2018-01-31T10:33:39.712Z,46.30
2018-01-31T10:36:13.112Z,47.20
2018-01-31T10:38:39.463Z,47.60
2018-01-31T10:41:06.595Z,48.70
2018-01-31T10:43:32.938Z,48.80
2018-01-31T10:45:59.340Z,49.30
2018-01-31T10:48:25.721Z,49.60
2018-01-31T10:50:52.066Z,50.10
2018-01-31T10:53:19.205Z,50.40
2018-01-31T10:58:11.999Z,50.20
2018-01-31T11:00:39.085Z,51.00
2018-01-31T11:03:05.506Z,50.90
2018-01-31T11:05:32.637Z,50.80
2018-01-31T11:07:59.017Z,51.00
2018-01-31T11:10:25.444Z,51.20
2018-01-31T11:12:51.839Z,50.50
2018-01-31T11:15:18.224Z,51.00
2018-01-31T11:17:44.631Z,50.90
2018-01-31T11:20:11.795Z,46.80
2018-01-31T11:22:38.922Z,45.20
2018-01-31T11:25:05.293Z,45.00
2018-01-31T11:27:31.680Z,43.80
2018-01-31T11:29:58.043Z,43.30
2018-01-31T11:32:24.394Z,42.90
2018-01-31T11:34:51.528Z,41.20
2018-01-31T11:37:17.926Z,41.40
2018-01-31T11:39:44.328Z,41.30
2018-01-31T11:42:11.410Z,42.00
2018-01-31T11:44:37.741Z,41.50
2018-01-31T11:47:04.103Z,41.80
2018-01-31T11:49:30.444Z,41.80
2018-01-31T11:51:56.807Z,42.10
2018-01-31T11:54:23.227Z,42.10
2018-01-31T11:56:49.608Z,41.90
2018-01-31T11:59:16.720Z,42.90
2018-01-31T12:01:43.122Z,42.20
2018-01-31T12:04:09.468Z,42.30
2018-01-31T12:06:35.814Z,42.40
2018-01-31T12:09:02.243Z,42.90
2018-01-31T12:11:28.601Z,42.90
2018-01-31T12:17:15.632Z,44.90
2018-01-31T12:20:12.160Z,44.30
2018-01-31T12:22:57.085Z,44.70
2018-01-31T12:25:41.808Z,45.80
2018-01-31T12:28:26.596Z,46.00
2018-01-31T12:31:13.111Z,44.90
2018-01-31T12:33:57.964Z,43.80
2018-01-31T12:36:43.377Z,45.00
2018-01-31T12:39:10.200Z,45.40
2018-01-31T12:41:36.240Z,45.40
2018-01-31T12:44:02.285Z,44.90
2018-01-31T12:46:47.845Z,44.80
2018-01-31T12:52:46.948Z,42.40
2018-01-31T12:55:32.652Z,42.50
2018-01-31T13:01:43.626Z,42.20
2018-01-31T13:04:28.715Z,42.70
2018-01-31T13:07:13.700Z,42.20
2018-01-31T13:09:59.119Z,42.40
2018-01-31T13:12:43.961Z,42.30
2018-01-31T13:15:28.815Z,42.20
2018-01-31T13:17:56.969Z,41.90
2018-01-31T13:20:42.724Z,41.70
2018-01-31T13:23:09.075Z,41.70
2018-01-31T13:25:53.908Z,41.70
2018-01-31T13:31:58.400Z,41.90
2018-01-31T13:34:43.148Z,41.80
2018-01-31T13:37:34.183Z,41.80
2018-01-31T13:43:28.165Z,41.60
2018-01-31T13:46:13.032Z,41.60
2018-01-31T13:48:58.095Z,41.60
2018-01-31T13:51:46.877Z,41.90
2018-01-31T13:54:31.508Z,41.60
2018-01-31T13:57:17.101Z,41.60
2018-01-31T14:00:02.051Z,41.30
2018-01-31T14:02:47.705Z,42.20
2018-01-31T14:05:34.236Z,42.50
2018-01-31T14:08:19.269Z,42.30
2018-01-31T14:11:04.888Z,43.30
2018-01-31T14:13:49.753Z,43.20
2018-01-31T14:16:34.332Z,42.90
2018-01-31T14:19:19.156Z,42.80
2018-01-31T14:22:03.997Z,42.70
2018-01-31T14:24:48.902Z,42.40
2018-01-31T14:27:33.607Z,42.10
2018-01-31T14:30:19.119Z,42.20
2018-01-31T14:33:03.853Z,42.00
2018-01-31T14:35:48.616Z,42.00
2018-01-31T14:38:14.657Z,42.30
2018-01-31T14:40:40.696Z,42.10
2018-01-31T14:43:06.763Z,42.30
2018-01-31T14:45:32.809Z,42.20
2018-01-31T14:47:58.881Z,42.00
2018-01-31T14:50:24.942Z,41.70
2018-01-31T14:52:51.000Z,41.40
2018-01-31T14:55:17.794Z,40.90
2018-01-31T14:57:43.904Z,41.40
2018-01-31T15:00:09.948Z,40.80
2018-01-31T15:02:35.985Z,41.30
2018-01-31T15:05:02.041Z,41.20
2018-01-31T15:07:28.072Z,41.80
2018-01-31T15:09:54.119Z,41.50
2018-01-31T15:12:20.940Z,42.00
2018-01-31T15:14:46.986Z,41.80
2018-01-31T15:17:13.034Z,41.40
2018-01-31T15:19:39.856Z,40.50
2018-01-31T15:22:05.900Z,40.30
2018-01-31T15:24:32.672Z,39.70
2018-01-31T15:26:58.786Z,39.30
2018-01-31T15:29:25.569Z,38.90
2018-01-31T15:31:51.617Z,39.00
2018-01-31T15:34:17.727Z,38.70
2018-01-31T15:36:43.815Z,38.60
2018-01-31T15:39:10.636Z,39.90
2018-01-31T15:41:36.680Z,39.60
2018-01-31T15:44:02.792Z,39.30
2018-01-31T15:46:28.881Z,40.00
2018-01-31T15:48:54.973Z,40.90
2018-01-31T15:51:21.168Z,41.30
2018-01-31T15:53:47.263Z,43.00
2018-01-31T15:56:14.097Z,43.40
2018-01-31T15:58:40.886Z,43.20
2018-01-31T16:01:06.959Z,43.20
2018-01-31T16:03:33.077Z,42.80
2018-01-31T16:05:59.157Z,44.70
2018-01-31T16:08:25.303Z,45.40
2018-01-31T16:10:51.353Z,45.50
2018-01-31T16:13:17.404Z,45.30
2018-01-31T16:15:43.600Z,46.60
2018-01-31T16:18:28.553Z,47.60
2018-01-31T16:21:13.442Z,47.90
2018-01-31T16:23:39.897Z,49.20
2018-01-31T16:26:06.303Z,47.20
2018-01-31T16:28:52.247Z,46.40
2018-01-31T16:34:27.676Z,44.80
2018-01-31T16:36:54.071Z,44.80
2018-01-31T16:39:20.513Z,44.10
2018-01-31T16:41:46.850Z,43.00
2018-01-31T16:44:13.510Z,43.40
2018-01-31T16:46:40.235Z,44.10
2018-01-31T16:49:06.761Z,45.40
2018-01-31T16:51:33.204Z,46.10
2018-01-31T16:53:59.563Z,47.50
2018-01-31T16:56:25.910Z,48.30
2018-01-31T16:58:52.276Z,48.80
2018-01-31T17:01:18.742Z,49.90
2018-01-31T17:03:45.091Z,48.40
2018-01-31T17:06:11.437Z,47.50
2018-01-31T17:08:37.836Z,49.20
2018-01-31T17:11:04.972Z,51.00
2018-01-31T17:13:31.324Z,50.80
2018-01-31T17:15:58.403Z,49.80
2018-01-31T17:18:24.804Z,49.30
2018-01-31T17:20:51.419Z,49.50
2018-01-31T17:23:17.786Z,50.90
2018-01-31T17:25:58.547Z,51.60
2018-01-31T17:28:25.684Z,53.30
2018-01-31T17:30:52.081Z,53.20
2018-01-31T17:33:18.503Z,51.60
2018-01-31T17:35:44.867Z,50.20
2018-01-31T17:38:11.228Z,49.10
2018-01-31T17:40:37.640Z,49.00
2018-01-31T17:43:04.004Z,48.90
2018-01-31T17:45:30.424Z,48.80
2018-01-31T17:47:57.812Z,49.00
2018-01-31T17:50:24.190Z,49.10
2018-01-31T17:52:50.567Z,50.10
2018-01-31T17:55:16.912Z,49.90
2018-01-31T17:57:43.336Z,53.50
2018-01-31T18:00:09.744Z,53.20
2018-01-31T18:02:36.120Z,56.10
2018-01-31T18:11:06.439Z,53.30
2018-01-31T18:13:33.034Z,53.10
2018-01-31T18:16:00.136Z,52.20
2018-01-31T18:18:26.491Z,52.10
2018-01-31T18:20:52.868Z,51.90
2018-01-31T18:23:19.983Z,50.10
2018-01-31T18:25:46.359Z,50.10
2018-01-31T18:28:13.508Z,50.10
2018-01-31T18:30:39.917Z,50.10
2018-01-31T18:33:06.269Z,50.20
2018-01-31T18:35:32.649Z,50.10
2018-01-31T18:37:59.045Z,50.00
2018-01-31T18:40:25.396Z,49.40
2018-01-31T18:42:52.518Z,48.80
2018-01-31T18:45:19.018Z,49.50
2018-01-31T18:47:45.363Z,49.20
2018-01-31T18:50:11.707Z,48.90
2018-01-31T18:52:38.104Z,48.80
2018-01-31T18:55:05.215Z,49.00
2018-01-31T18:57:31.547Z,49.00
2018-01-31T18:59:57.984Z,47.90
2018-01-31T19:02:24.332Z,48.40
2018-01-31T19:04:50.760Z,48.50
2018-01-31T19:07:17.173Z,49.50
2018-01-31T19:09:43.528Z,48.00
2018-01-31T19:12:09.880Z,48.70
2018-01-31T19:14:36.282Z,49.50
2018-01-31T19:17:02.691Z,46.90
2018-01-31T19:19:29.037Z,45.60
2018-01-31T19:21:56.124Z,46.60
2018-01-31T19:24:22.495Z,46.40
2018-01-31T19:26:48.852Z,45.60
2018-01-31T19:29:15.222Z,44.90
2018-01-31T19:31:41.599Z,45.80
2018-01-31T19:34:07.955Z,45.50
2018-01-31T19:36:34.328Z,45.30
2018-01-31T19:39:00.682Z,46.50
2018-01-31T19:41:27.085Z,46.90
2018-01-31T19:43:54.216Z,49.50
2018-01-31T19:46:20.576Z,49.20
2018-01-31T19:48:47.666Z,48.70
2018-01-31T19:51:14.036Z,48.60
2018-01-31T19:53:40.431Z,48.70
2018-01-31T19:56:06.792Z,48.70
2018-01-31T19:58:33.179Z,47.90
2018-01-31T20:01:00.283Z,47.80
2018-01-31T20:03:26.655Z,48.00
2018-01-31T20:05:53.060Z,47.10
2018-01-31T20:08:19.412Z,46.10
2018-01-31T20:10:45.835Z,47.00
2018-01-31T20:16:09.145Z,49.20
2018-01-31T20:18:36.260Z,50.60
2018-01-31T20:21:02.664Z,50.20
2018-01-31T20:23:29.019Z,50.10
2018-01-31T20:25:55.365Z,49.80
2018-01-31T20:28:21.748Z,49.50
2018-01-31T20:33:29.318Z,49.90
2018-01-31T20:35:55.664Z,49.30
2018-01-31T20:38:22.038Z,49.20
2018-01-31T20:40:48.449Z,48.60
2018-01-31T20:43:14.796Z,48.00
2018-01-31T20:45:41.177Z,47.90
2018-01-31T20:48:08.322Z,47.70
2018-01-31T20:50:34.733Z,48.30
2018-01-31T20:53:01.904Z,47.60
2018-01-31T20:55:29.041Z,47.10
2018-01-31T20:57:55.379Z,46.90
2018-01-31T21:00:21.795Z,48.20
2018-01-31T21:02:48.140Z,48.30
2018-01-31T21:05:14.488Z,48.80
2018-01-31T21:07:40.921Z,48.50
2018-01-31T21:10:07.302Z,49.40
2018-01-31T21:12:33.660Z,49.60
2018-01-31T21:15:29.008Z,49.90
2018-01-31T21:17:55.383Z,50.90
2018-01-31T21:20:21.759Z,52.30
2018-01-31T21:22:48.156Z,50.40
2018-01-31T21:25:14.504Z,50.30
2018-01-31T21:27:40.852Z,49.50
2018-01-31T21:30:07.234Z,49.50
2018-01-31T21:32:33.584Z,50.00
2018-01-31T21:35:00.667Z,47.90
2018-01-31T21:37:27.069Z,47.90
2018-01-31T21:39:54.188Z,49.30
2018-01-31T21:42:20.531Z,49.30
2018-01-31T21:44:46.917Z,49.20
2018-01-31T21:47:13.275Z,50.70
2018-01-31T21:49:40.339Z,55.00
2018-01-31T21:52:06.727Z,55.10
2018-01-31T21:54:33.886Z,58.00
2018-01-31T21:57:00.964Z,58.30
2018-01-31T21:59:27.360Z,58.50
2018-01-31T22:01:53.773Z,58.90
2018-01-31T22:04:20.119Z,60.00
2018-01-31T22:06:46.512Z,60.10
2018-01-31T22:09:12.960Z,61.10
2018-01-31T22:11:39.362Z,61.00
2018-01-31T22:14:06.503Z,61.30
2018-01-31T22:16:32.876Z,61.20
2018-01-31T22:18:59.263Z,61.00
2018-01-31T22:21:25.599Z,62.30
2018-01-31T22:23:51.981Z,62.50
2018-01-31T22:26:18.326Z,63.30
2018-01-31T22:28:44.679Z,63.60
2018-01-31T22:31:11.034Z,63.60
2018-01-31T22:33:37.380Z,64.40
2018-01-31T22:36:03.739Z,64.80
2018-01-31T22:38:30.103Z,65.10
2018-01-31T22:40:56.431Z,66.60
2018-01-31T22:43:23.504Z,65.80
2018-01-31T22:45:49.881Z,65.60
2018-01-31T22:48:16.224Z,65.90
2018-01-31T22:50:43.321Z,66.20
2018-01-31T22:53:09.716Z,66.10
2018-01-31T22:55:36.084Z,66.90
2018-01-31T22:58:02.462Z,67.00
2018-01-31T23:00:35.739Z,67.50
2018-01-31T23:03:02.103Z,67.30
2018-01-31T23:05:28.455Z,67.50
2018-01-31T23:07:54.838Z,68.10
2018-01-31T23:10:21.183Z,68.20
2018-01-31T23:15:46.883Z,67.90
2018-01-31T23:18:17.917Z,68.10
2018-01-31T23:20:45.020Z,69.10
2018-01-31T23:23:11.380Z,68.60
2018-01-31T23:25:37.775Z,68.30
2018-01-31T23:28:04.111Z,68.40
2018-01-31T23:30:30.512Z,68.80
2018-01-31T23:32:56.840Z,69.10
2018-01-31T23:35:23.193Z,69.90
2018-01-31T23:37:49.562Z,69.90
2018-01-31T23:40:15.902Z,69.90
2018-01-31T23:42:42.243Z,69.70
2018-01-31T23:45:08.603Z,69.90
2018-01-31T23:47:34.938Z,69.70
2018-01-31T23:50:01.275Z,69.40
2018-01-31T23:52:27.616Z,69.70
2018-01-31T23:54:53.970Z,69.70
2018-01-31T23:57:20.308Z,69.90
2018-01-31T23:59:46.672Z,69.90
